createdAt,value
2023-03-29T00:00:16.872Z,2.40
2023-03-29T00:02:55.512Z,2.23
2023-03-29T00:05:32.432Z,2.27
2023-03-29T00:08:06.700Z,2.30
2023-03-29T00:10:41.448Z,2.87
2023-03-29T00:13:15.408Z,2.30
2023-03-29T00:15:50.440Z,2.30
2023-03-29T00:18:24.445Z,2.40
2023-03-29T00:21:06.446Z,2.80
2023-03-29T00:23:33.917Z,2.60
2023-03-29T00:26:08.585Z,2.40
2023-03-29T00:28:36.302Z,3.00
2023-03-29T00:31:18.463Z,2.77
2023-03-29T00:33:53.384Z,2.70
2023-03-29T00:36:29.411Z,3.13
2023-03-29T00:38:57.569Z,3.47
2023-03-29T00:41:31.431Z,3.23
2023-03-29T00:44:08.405Z,3.10
2023-03-29T00:46:42.508Z,3.00
2023-03-29T00:49:14.082Z,3.23
2023-03-29T00:51:49.418Z,3.20
2023-03-29T00:54:19.741Z,3.47
2023-03-29T00:57:01.498Z,3.10
2023-03-29T00:59:39.430Z,3.30
2023-03-29T01:02:15.582Z,3.37
2023-03-29T01:05:02.016Z,2.67
2023-03-29T01:07:54.444Z,2.57
2023-03-29T01:10:39.339Z,2.57
2023-03-29T01:13:22.613Z,2.50
2023-03-29T01:15:56.476Z,2.77
2023-03-29T01:18:32.666Z,2.93
2023-03-29T01:21:11.748Z,2.70
2023-03-29T01:23:54.594Z,2.20
2023-03-29T01:27:20.649Z,2.30
2023-03-29T01:29:48.189Z,2.13
2023-03-29T01:32:43.749Z,2.30
2023-03-29T01:35:27.704Z,2.70
2023-03-29T01:38:30.644Z,2.30
2023-03-29T01:40:58.235Z,2.33
2023-03-29T01:43:37.678Z,2.40
2023-03-29T01:46:30.832Z,2.53
2023-03-29T01:49:16.792Z,2.00
2023-03-29T01:52:07.676Z,2.17
2023-03-29T01:54:59.754Z,1.90
2023-03-29T01:57:34.687Z,2.40
2023-03-29T02:00:18.723Z,2.07
2023-03-29T02:02:55.794Z,2.03
2023-03-29T02:05:38.659Z,1.90
2023-03-29T02:08:16.725Z,2.00
2023-03-29T02:10:52.679Z,1.73
2023-03-29T02:13:27.729Z,1.80
2023-03-29T02:15:55.465Z,1.67
2023-03-29T02:18:33.188Z,1.87
2023-03-29T02:21:01.330Z,1.70
2023-03-29T02:23:45.700Z,1.60
2023-03-29T02:26:14.691Z,1.67
2023-03-29T02:28:49.734Z,1.50
2023-03-29T02:31:43.817Z,1.57
2023-03-29T02:34:23.654Z,1.60
2023-03-29T02:37:03.704Z,1.50
2023-03-29T02:39:33.894Z,1.50
2023-03-29T02:42:09.724Z,1.90
2023-03-29T02:44:47.686Z,1.30
2023-03-29T02:47:27.721Z,1.60
2023-03-29T02:49:55.506Z,1.93
2023-03-29T02:52:34.730Z,1.70
2023-03-29T02:55:05.611Z,1.90
2023-03-29T02:57:39.733Z,2.30
2023-03-29T03:00:10.917Z,1.67
2023-03-29T03:02:52.875Z,1.67
2023-03-29T03:05:20.587Z,1.70
2023-03-29T03:07:56.199Z,1.73
2023-03-29T03:10:23.731Z,1.80
2023-03-29T03:12:57.842Z,1.50
2023-03-29T03:15:26.604Z,1.50
2023-03-29T03:18:02.739Z,2.20
2023-03-29T03:20:31.450Z,1.50
2023-03-29T03:23:05.773Z,1.30
2023-03-29T03:25:42.741Z,1.43
2023-03-29T03:28:10.481Z,1.23
2023-03-29T03:30:38.764Z,1.20
2023-03-29T03:33:12.723Z,1.40
2023-03-29T03:35:54.680Z,1.40
2023-03-29T03:38:22.387Z,1.30
2023-03-29T03:41:06.736Z,1.20
2023-03-29T03:43:38.466Z,1.20
2023-03-29T03:46:12.842Z,1.33
2023-03-29T03:48:41.284Z,1.27
2023-03-29T03:51:15.751Z,1.27
2023-03-29T03:53:49.737Z,1.20
2023-03-29T03:56:17.958Z,1.03
2023-03-29T03:58:52.730Z,1.20
2023-03-29T04:01:26.689Z,1.70
2023-03-29T04:04:07.706Z,1.20
2023-03-29T04:06:35.481Z,1.43
2023-03-29T04:09:10.685Z,1.10
2023-03-29T04:11:47.268Z,1.40
2023-03-29T04:14:25.199Z,1.80
2023-03-29T04:16:53.997Z,1.30
2023-03-29T04:19:28.691Z,1.80
2023-03-29T04:21:56.582Z,1.40
2023-03-29T04:24:25.097Z,1.33
2023-03-29T04:26:58.692Z,1.73
2023-03-29T04:29:26.468Z,1.60
2023-03-29T04:32:02.703Z,1.40
2023-03-29T04:34:31.781Z,1.40
2023-03-29T04:37:05.765Z,1.47
2023-03-29T04:39:40.803Z,1.53
2023-03-29T04:42:18.697Z,1.63
2023-03-29T04:44:47.814Z,1.40
2023-03-29T04:47:16.046Z,2.40
2023-03-29T04:49:52.212Z,1.93
2023-03-29T04:52:24.419Z,1.80
2023-03-29T04:55:04.801Z,1.90
2023-03-29T04:57:33.628Z,1.60
2023-03-29T05:00:07.774Z,1.60
2023-03-29T05:02:58.808Z,1.80
2023-03-29T05:05:33.851Z,1.57
2023-03-29T05:08:01.805Z,1.50
2023-03-29T05:10:35.719Z,1.60
2023-03-29T05:13:10.753Z,1.33
2023-03-29T05:15:45.730Z,1.20
2023-03-29T05:18:19.757Z,1.43
2023-03-29T05:20:47.396Z,1.73
2023-03-29T05:23:21.785Z,1.50
2023-03-29T05:25:50.275Z,1.70
2023-03-29T05:28:19.528Z,1.47
2023-03-29T05:30:54.767Z,1.40
2023-03-29T05:33:22.252Z,1.50
2023-03-29T05:35:56.824Z,1.47
2023-03-29T05:38:32.734Z,1.40
2023-03-29T05:41:01.093Z,0.90
2023-03-29T05:43:30.449Z,1.70
2023-03-29T05:46:05.886Z,1.37
2023-03-29T05:48:33.806Z,1.37
2023-03-29T05:51:07.814Z,1.40
2023-03-29T05:53:35.585Z,1.30
2023-03-29T05:56:10.995Z,1.10
2023-03-29T05:58:39.571Z,1.10
2023-03-29T06:01:19.731Z,1.30
2023-03-29T06:03:53.970Z,1.20
2023-03-29T06:06:27.714Z,1.00
2023-03-29T06:09:02.710Z,1.10
2023-03-29T06:11:30.853Z,1.17
2023-03-29T06:14:04.747Z,1.10
2023-03-29T06:16:40.163Z,1.20
2023-03-29T06:19:16.742Z,1.10
2023-03-29T06:21:52.058Z,1.13
2023-03-29T06:24:28.803Z,1.40
2023-03-29T06:27:02.713Z,1.20
2023-03-29T06:29:30.470Z,1.00
2023-03-29T06:32:12.128Z,1.10
2023-03-29T06:34:41.155Z,1.40
2023-03-29T06:37:15.777Z,1.20
2023-03-29T06:39:53.205Z,1.30
2023-03-29T06:42:27.740Z,1.30
2023-03-29T06:44:55.235Z,1.30
2023-03-29T06:47:31.085Z,1.43
2023-03-29T06:50:04.783Z,1.07
2023-03-29T06:52:38.739Z,1.50
2023-03-29T06:55:08.030Z,1.50
2023-03-29T06:57:41.713Z,1.47
2023-03-29T07:00:18.562Z,1.13
2023-03-29T07:02:52.758Z,1.73
2023-03-29T07:05:20.390Z,1.30
2023-03-29T07:08:06.726Z,1.30
2023-03-29T07:10:39.660Z,1.43
2023-03-29T07:13:16.790Z,1.37
2023-03-29T07:15:51.729Z,1.27
2023-03-29T07:18:26.732Z,1.40
2023-03-29T07:20:54.191Z,1.10
2023-03-29T07:23:27.749Z,1.53
2023-03-29T07:25:56.682Z,1.30
2023-03-29T07:28:30.776Z,1.27
2023-03-29T07:31:23.734Z,1.75
2023-03-29T07:33:59.732Z,1.33
2023-03-29T07:36:35.752Z,1.42
2023-03-29T07:39:10.794Z,1.02
2023-03-29T07:41:38.670Z,1.30
2023-03-29T07:44:09.220Z,1.40
2023-03-29T07:46:43.756Z,1.25
2023-03-29T07:49:12.498Z,1.60
2023-03-29T07:51:48.817Z,1.30
2023-03-29T07:54:16.408Z,1.40
2023-03-29T07:56:50.824Z,1.40
2023-03-29T07:59:24.789Z,1.23
2023-03-29T08:02:01.781Z,1.50
2023-03-29T08:04:35.815Z,1.45
2023-03-29T08:07:04.711Z,1.50
2023-03-29T08:09:38.748Z,1.60
2023-03-29T08:14:46.817Z,1.38
2023-03-29T08:17:20.712Z,1.60
2023-03-29T08:19:55.738Z,2.65
2023-03-29T08:22:23.378Z,1.50
2023-03-29T08:24:58.825Z,1.50
2023-03-29T08:27:26.584Z,1.40
2023-03-29T08:30:02.082Z,1.55
2023-03-29T08:32:37.204Z,1.45
2023-03-29T08:35:16.752Z,1.40
2023-03-29T08:37:44.266Z,1.60
2023-03-29T08:40:31.756Z,1.50
2023-03-29T08:43:08.735Z,1.55
2023-03-29T08:46:13.842Z,1.70
2023-03-29T08:48:53.727Z,1.77
2023-03-29T08:51:49.484Z,2.00
2023-03-29T08:54:31.747Z,2.30
2023-03-29T08:57:10.183Z,2.10
2023-03-29T08:59:45.777Z,2.20
2023-03-29T09:02:29.150Z,1.90
2023-03-29T09:05:15.223Z,1.55
2023-03-29T09:07:49.731Z,1.90
2023-03-29T09:10:20.907Z,1.30
2023-03-29T09:13:10.795Z,1.45
2023-03-29T09:15:52.512Z,1.30
2023-03-29T09:18:46.816Z,1.60
2023-03-29T09:21:30.550Z,1.10
2023-03-29T09:24:35.988Z,1.75
2023-03-29T09:27:32.519Z,1.40
2023-03-29T09:30:40.030Z,1.13
2023-03-29T09:34:01.816Z,1.20
2023-03-29T09:36:58.313Z,1.30
2023-03-29T09:39:35.293Z,1.13
2023-03-29T09:42:14.373Z,1.60
2023-03-29T09:44:54.455Z,1.40
2023-03-29T09:47:52.390Z,1.30
2023-03-29T09:50:37.016Z,1.30
2023-03-29T09:53:12.325Z,1.38
2023-03-29T09:55:40.992Z,1.40
2023-03-29T09:58:23.289Z,1.40
2023-03-29T10:00:57.352Z,1.10
2023-03-29T10:03:34.724Z,1.25
2023-03-29T10:06:05.310Z,1.15
2023-03-29T10:08:55.586Z,1.30
2023-03-29T10:11:31.726Z,1.15
2023-03-29T10:14:23.356Z,1.10
2023-03-29T10:17:03.295Z,1.30
2023-03-29T10:19:41.311Z,1.25
2023-03-29T10:22:20.260Z,1.45
2023-03-29T10:25:00.324Z,1.40
2023-03-29T10:27:38.308Z,1.40
2023-03-29T10:30:26.328Z,1.15
2023-03-29T10:33:07.374Z,1.23
2023-03-29T10:35:42.014Z,1.20
2023-03-29T10:38:23.288Z,1.52
2023-03-29T10:40:55.538Z,0.95
2023-03-29T10:43:45.427Z,1.05
2023-03-29T10:46:26.304Z,1.25
2023-03-29T10:49:12.366Z,1.50
2023-03-29T10:51:45.822Z,1.38
2023-03-29T10:54:27.372Z,1.50
2023-03-29T10:56:59.255Z,1.65
2023-03-29T11:00:00.412Z,1.30
2023-03-29T11:03:16.500Z,1.20
2023-03-29T11:05:54.521Z,1.20
2023-03-29T11:08:55.346Z,1.20
2023-03-29T11:11:41.559Z,1.02
2023-03-29T11:14:31.387Z,1.33
2023-03-29T11:17:45.360Z,1.13
2023-03-29T11:20:40.122Z,1.15
2023-03-29T11:23:47.389Z,1.52
2023-03-29T11:26:40.337Z,1.23
2023-03-29T11:29:32.332Z,1.20
2023-03-29T11:32:17.449Z,0.88
2023-03-29T11:35:37.400Z,1.58
2023-03-29T11:38:11.193Z,1.17
2023-03-29T11:41:24.375Z,0.95
2023-03-29T11:44:33.850Z,1.00
2023-03-29T11:47:18.344Z,1.00
2023-03-29T11:50:00.688Z,1.42
2023-03-29T11:52:47.350Z,1.20
2023-03-29T11:55:23.866Z,1.20
2023-03-29T11:58:14.397Z,0.95
2023-03-29T12:00:55.342Z,1.13
2023-03-29T12:03:42.215Z,1.27
2023-03-29T12:06:41.792Z,1.30
2023-03-29T12:09:28.395Z,1.08
2023-03-29T12:12:16.715Z,1.33
2023-03-29T12:15:18.470Z,1.48
2023-03-29T12:18:29.402Z,1.15
2023-03-29T12:21:11.336Z,1.30
2023-03-29T12:23:41.105Z,1.10
2023-03-29T12:26:42.527Z,1.10
2023-03-29T12:29:44.150Z,0.90
2023-03-29T12:32:54.385Z,1.23
2023-03-29T12:35:59.222Z,1.10
2023-03-29T12:38:36.376Z,1.30
2023-03-29T12:41:19.249Z,1.10
2023-03-29T12:43:54.355Z,1.08
2023-03-29T12:46:34.116Z,1.00
2023-03-29T12:49:24.348Z,1.23
2023-03-29T12:51:51.724Z,1.00
2023-03-29T12:54:34.367Z,1.35
2023-03-29T12:57:20.955Z,1.00
2023-03-29T12:59:56.363Z,1.40
2023-03-29T13:02:23.556Z,1.02
2023-03-29T13:05:01.537Z,1.15
2023-03-29T13:07:32.575Z,1.13
2023-03-29T13:10:10.336Z,1.00
2023-03-29T13:12:56.325Z,1.48
2023-03-29T13:15:33.387Z,1.60
2023-03-29T13:18:14.264Z,1.10
2023-03-29T13:21:05.393Z,1.20
2023-03-29T13:24:07.406Z,0.95
2023-03-29T13:27:01.825Z,1.23
2023-03-29T13:29:56.408Z,1.40
2023-03-29T13:32:57.463Z,1.15
2023-03-29T13:35:52.429Z,1.23
2023-03-29T13:38:31.898Z,1.30
2023-03-29T13:41:32.398Z,1.35
2023-03-29T13:44:00.428Z,1.20
2023-03-29T13:46:49.419Z,1.20
2023-03-29T13:49:28.769Z,1.40
2023-03-29T13:52:30.509Z,1.15
2023-03-29T13:55:13.760Z,1.42
2023-03-29T13:58:11.408Z,1.00
2023-03-29T14:00:58.669Z,1.23
2023-03-29T14:03:36.676Z,0.93
2023-03-29T14:06:05.674Z,1.27
2023-03-29T14:08:51.385Z,1.10
2023-03-29T14:11:33.442Z,1.25
2023-03-29T14:14:15.442Z,1.30
2023-03-29T14:16:42.801Z,1.05
2023-03-29T14:19:35.401Z,1.20
2023-03-29T14:22:16.410Z,1.30
2023-03-29T14:25:19.409Z,1.30
2023-03-29T14:27:53.404Z,1.35
2023-03-29T14:30:33.426Z,1.40
2023-03-29T14:33:20.363Z,1.55
2023-03-29T14:35:54.398Z,1.40
2023-03-29T14:38:31.463Z,1.40
2023-03-29T14:41:09.382Z,1.60
2023-03-29T14:43:44.376Z,1.25
2023-03-29T14:46:22.453Z,1.40
2023-03-29T14:48:56.413Z,1.20
2023-03-29T14:51:37.377Z,1.30
2023-03-29T14:54:19.407Z,1.23
2023-03-29T14:56:55.424Z,1.38
2023-03-29T14:59:43.044Z,1.17
2023-03-29T15:02:59.501Z,1.05
2023-03-29T15:05:46.953Z,1.45
2023-03-29T15:09:02.098Z,1.17
2023-03-29T15:11:34.495Z,1.20
2023-03-29T15:14:20.417Z,1.23
2023-03-29T15:16:51.991Z,1.00
2023-03-29T15:19:29.660Z,1.33
2023-03-29T15:22:03.436Z,1.02
2023-03-29T15:24:40.412Z,1.40
2023-03-29T15:27:19.932Z,0.85
2023-03-29T15:29:54.392Z,1.17
2023-03-29T15:32:31.516Z,1.30
2023-03-29T15:35:20.753Z,1.23
2023-03-29T15:37:54.457Z,1.00
2023-03-29T15:40:34.754Z,1.25
2023-03-29T15:43:01.887Z,1.38
2023-03-29T15:45:29.021Z,1.20
2023-03-29T15:48:03.475Z,1.15
2023-03-29T15:50:32.736Z,1.70
2023-03-29T15:53:14.597Z,1.42
2023-03-29T15:55:46.310Z,1.17
2023-03-29T15:58:26.408Z,1.30
2023-03-29T16:01:31.499Z,1.15
2023-03-29T16:04:05.500Z,1.30
2023-03-29T16:06:41.431Z,1.52
2023-03-29T16:09:18.451Z,0.90
2023-03-29T16:11:47.941Z,1.40
2023-03-29T16:14:34.550Z,1.63
2023-03-29T16:17:09.408Z,1.40
2023-03-29T16:19:36.445Z,1.10
2023-03-29T16:22:14.434Z,1.50
2023-03-29T16:24:41.625Z,1.23
2023-03-29T16:27:15.519Z,1.30
2023-03-29T16:29:42.727Z,1.48
2023-03-29T16:32:17.593Z,1.48
2023-03-29T16:34:59.457Z,1.20
2023-03-29T16:37:33.407Z,1.48
2023-03-29T16:40:07.436Z,1.20
2023-03-29T16:42:41.394Z,1.23
2023-03-29T16:45:21.435Z,1.23
2023-03-29T16:47:48.625Z,1.65
2023-03-29T16:50:26.410Z,1.70
2023-03-29T16:52:53.716Z,1.25
2023-03-29T16:55:27.384Z,1.90
2023-03-29T16:57:54.926Z,1.35
2023-03-29T17:00:28.425Z,1.88
2023-03-29T17:03:02.623Z,1.55
2023-03-29T17:05:37.395Z,1.55
2023-03-29T17:08:11.436Z,1.70
2023-03-29T17:10:47.439Z,1.40
2023-03-29T17:13:21.440Z,1.58
2023-03-29T17:15:59.442Z,1.70
2023-03-29T17:18:34.446Z,1.90
2023-03-29T17:21:01.885Z,1.50
2023-03-29T17:23:36.470Z,1.98
2023-03-29T17:26:11.628Z,1.30
2023-03-29T17:28:45.428Z,1.42
2023-03-29T17:31:19.679Z,1.63
2023-03-29T17:33:59.475Z,1.45
2023-03-29T17:36:35.512Z,1.85
2023-03-29T17:39:03.081Z,1.50
2023-03-29T17:41:36.431Z,1.70
2023-03-29T17:44:03.710Z,1.42
2023-03-29T17:46:38.444Z,1.73
2023-03-29T17:49:06.537Z,1.90
2023-03-29T17:51:40.454Z,1.80
2023-03-29T17:54:14.437Z,1.30
2023-03-29T17:56:48.521Z,1.25
2023-03-29T17:59:22.426Z,1.67
2023-03-29T18:01:56.490Z,1.63
2023-03-29T18:04:23.594Z,1.40
2023-03-29T18:06:57.455Z,1.92
2023-03-29T18:09:28.009Z,1.90
2023-03-29T18:12:03.476Z,1.60
2023-03-29T18:14:37.464Z,1.60
2023-03-29T18:17:11.607Z,1.70
2023-03-29T18:19:38.722Z,1.60
2023-03-29T18:22:06.360Z,1.73
2023-03-29T18:24:42.460Z,1.30
2023-03-29T18:27:16.436Z,1.40
2023-03-29T18:29:51.461Z,1.55
2023-03-29T18:32:25.646Z,1.73
2023-03-29T18:35:05.462Z,1.35
2023-03-29T18:37:39.522Z,1.80
2023-03-29T18:40:17.438Z,1.67
2023-03-29T18:42:44.571Z,1.67
2023-03-29T18:45:18.416Z,1.42
2023-03-29T18:47:45.633Z,1.77
2023-03-29T18:50:13.428Z,1.70
2023-03-29T18:52:47.451Z,2.00
2023-03-29T18:55:14.688Z,1.40
2023-03-29T18:57:42.338Z,1.90
2023-03-29T19:00:19.475Z,1.73
2023-03-29T19:02:46.997Z,2.13
2023-03-29T19:05:20.451Z,1.77
2023-03-29T19:07:47.634Z,1.98
2023-03-29T19:10:21.461Z,1.60
2023-03-29T19:12:49.348Z,1.75
2023-03-29T19:15:23.496Z,1.80
2023-03-29T19:17:57.487Z,3.42
2023-03-29T19:20:25.706Z,3.15
2023-03-29T19:23:00.511Z,4.38
2023-03-29T19:25:34.473Z,2.30
2023-03-29T19:28:10.466Z,1.90
2023-03-29T19:30:44.544Z,1.58
2023-03-29T19:33:25.492Z,2.10
2023-03-29T19:35:53.160Z,1.77
2023-03-29T19:38:28.454Z,2.63
2023-03-29T19:41:02.551Z,1.40
2023-03-29T19:43:36.483Z,1.30
2023-03-29T19:46:17.479Z,1.50
2023-03-29T19:48:51.525Z,1.80
2023-03-29T19:51:18.662Z,1.80
2023-03-29T19:53:45.940Z,1.63
2023-03-29T19:56:21.428Z,1.60
2023-03-29T19:58:49.349Z,1.65
2023-03-29T20:01:27.524Z,1.65
2023-03-29T20:04:01.530Z,1.98
2023-03-29T20:06:35.521Z,2.20
2023-03-29T20:09:05.258Z,1.80
2023-03-29T20:11:39.602Z,1.70
2023-03-29T20:14:13.454Z,1.95
2023-03-29T20:16:48.723Z,1.85
2023-03-29T20:19:23.444Z,2.10
2023-03-29T20:22:01.465Z,1.80
2023-03-29T20:24:29.225Z,1.67
2023-03-29T20:27:02.531Z,1.90
2023-03-29T20:29:36.524Z,1.80
2023-03-29T20:32:10.541Z,1.75
2023-03-29T20:34:50.480Z,2.05
2023-03-29T20:37:24.435Z,1.88
2023-03-29T20:39:59.492Z,1.80
2023-03-29T20:42:36.538Z,1.50
2023-03-29T20:45:04.920Z,1.73
2023-03-29T20:47:40.760Z,1.88
2023-03-29T20:50:16.437Z,1.80
2023-03-29T20:52:49.503Z,1.98
2023-03-29T20:55:28.572Z,1.58
2023-03-29T20:58:03.519Z,2.05
2023-03-29T21:00:40.499Z,1.92
2023-03-29T21:03:08.635Z,2.20
2023-03-29T21:05:42.471Z,1.70
2023-03-29T21:08:10.087Z,2.30
2023-03-29T21:11:00.631Z,1.90
2023-03-29T21:13:41.541Z,1.85
2023-03-29T21:16:15.451Z,1.90
2023-03-29T21:18:50.579Z,1.98
2023-03-29T21:21:17.759Z,1.77
2023-03-29T21:23:51.447Z,1.95
2023-03-29T21:26:18.597Z,1.98
2023-03-29T21:28:52.538Z,2.75
2023-03-29T21:31:26.525Z,2.22
2023-03-29T21:34:07.537Z,1.98
2023-03-29T21:36:35.241Z,2.45
2023-03-29T21:39:08.509Z,2.10
2023-03-29T21:41:35.623Z,1.90
2023-03-29T21:44:09.519Z,1.83
2023-03-29T21:46:36.669Z,2.05
2023-03-29T21:49:10.483Z,2.38
2023-03-29T21:51:44.501Z,2.00
2023-03-29T21:54:11.663Z,1.90
2023-03-29T21:56:45.584Z,2.03
2023-03-29T21:59:19.471Z,2.60
2023-03-29T22:01:53.530Z,2.20
2023-03-29T22:04:36.507Z,2.53
2023-03-29T22:07:06.348Z,1.85
2023-03-29T22:09:41.602Z,1.92
2023-03-29T22:12:10.163Z,2.35
2023-03-29T22:14:43.472Z,2.78
2023-03-29T22:17:10.578Z,2.60
2023-03-29T22:19:39.385Z,1.92
2023-03-29T22:22:19.568Z,2.15
2023-03-29T22:24:53.505Z,2.20
2023-03-29T22:27:29.494Z,2.28
2023-03-29T22:29:56.569Z,2.22
2023-03-29T22:32:30.527Z,2.22
2023-03-29T22:35:11.474Z,1.92
2023-03-29T22:37:43.929Z,2.35
2023-03-29T22:40:18.545Z,1.95
2023-03-29T22:42:48.026Z,2.72
2023-03-29T22:45:21.496Z,2.38
2023-03-29T22:47:48.586Z,2.55
2023-03-29T22:50:22.506Z,2.85
2023-03-29T22:52:49.629Z,2.17
2023-03-29T22:55:29.723Z,2.65
2023-03-29T22:58:03.517Z,2.80
2023-03-29T23:00:37.502Z,2.53
2023-03-29T23:03:04.836Z,2.35
2023-03-29T23:05:42.790Z,2.20
2023-03-29T23:08:10.241Z,2.70
2023-03-29T23:10:43.822Z,2.47
2023-03-29T23:13:17.484Z,2.70
2023-03-29T23:15:55.587Z,3.13
2023-03-29T23:18:30.521Z,2.67
2023-03-29T23:21:06.353Z,2.78
2023-03-29T23:23:33.939Z,2.75
2023-03-29T23:26:08.530Z,2.50
2023-03-29T23:28:42.574Z,2.63
2023-03-29T23:31:24.514Z,2.85
2023-03-29T23:33:59.282Z,3.25
2023-03-29T23:36:34.506Z,2.63
2023-03-29T23:39:08.633Z,2.90
2023-03-29T23:41:36.440Z,2.38
2023-03-29T23:44:10.514Z,3.13
2023-03-29T23:46:37.686Z,2.83
2023-03-29T23:49:11.517Z,2.40
2023-03-29T23:51:39.341Z,2.90
2023-03-29T23:54:13.502Z,2.88
2023-03-29T23:56:47.547Z,3.08
2023-03-29T23:59:14.602Z,2.92
